createdAt,value
2023-04-11T00:00:50.293Z,426.00
2023-04-11T00:01:50.397Z,400.00
2023-04-11T00:02:50.479Z,400.00
2023-04-11T00:03:50.459Z,400.00
2023-04-11T00:04:50.354Z,400.00
2023-04-11T00:05:50.278Z,400.00
2023-04-11T00:06:50.256Z,400.00
2023-04-11T00:07:50.236Z,419.00
2023-04-11T00:08:50.226Z,453.00
2023-04-11T00:09:50.222Z,477.00
2023-04-11T00:10:50.246Z,500.00
2023-04-11T00:11:50.211Z,501.00
2023-04-11T00:12:50.197Z,497.00
2023-04-11T00:13:50.191Z,500.00
2023-04-11T00:14:50.181Z,504.00
2023-04-11T00:15:50.178Z,501.00
2023-04-11T00:16:50.347Z,500.00
2023-04-11T00:17:50.202Z,501.00
2023-04-11T00:18:50.156Z,502.00
2023-04-11T00:19:50.147Z,503.00
2023-04-11T00:20:50.139Z,503.00
2023-04-11T00:21:50.134Z,500.00
2023-04-11T00:22:50.139Z,500.00
2023-04-11T00:23:50.192Z,502.00
2023-04-11T00:24:50.224Z,500.00
2023-04-11T00:25:50.274Z,501.00
2023-04-11T00:26:50.339Z,502.00
2023-04-11T00:27:50.770Z,505.00
2023-04-11T00:28:50.758Z,500.00
2023-04-11T00:29:50.735Z,503.00
2023-04-11T00:30:50.742Z,504.00
2023-04-11T00:31:50.790Z,500.00
2023-04-11T00:32:50.755Z,500.00
2023-04-11T00:33:50.728Z,511.00
2023-04-11T00:34:50.742Z,506.00
2023-04-11T00:35:50.841Z,505.00
2023-04-11T00:36:50.769Z,500.00
2023-04-11T00:37:51.688Z,503.00
2023-04-11T00:38:50.758Z,502.00
2023-04-11T00:39:50.792Z,504.00
2023-04-11T00:40:50.836Z,501.00
2023-04-11T00:41:50.896Z,502.00
2023-04-11T00:42:50.950Z,506.00
2023-04-11T00:43:50.956Z,505.00
2023-04-11T00:44:51.012Z,500.00
2023-04-11T00:45:51.929Z,502.00
2023-04-11T00:46:51.093Z,505.00
2023-04-11T00:47:51.217Z,507.00
2023-04-11T00:48:51.177Z,507.00
2023-04-11T00:49:51.840Z,506.00
2023-04-11T00:50:51.250Z,504.00
2023-04-11T00:51:51.300Z,506.00
2023-04-11T00:52:51.703Z,502.00
2023-04-11T00:53:51.755Z,502.00
2023-04-11T00:54:51.745Z,504.00
2023-04-11T00:55:51.759Z,502.00
2023-04-11T00:56:51.750Z,500.00
2023-04-11T00:57:51.746Z,509.00
2023-04-11T00:58:51.801Z,508.00
2023-04-11T00:59:52.342Z,500.00
2023-04-11T01:00:51.810Z,504.00
2023-04-11T01:01:51.905Z,508.00
2023-04-11T01:02:51.898Z,511.00
2023-04-11T01:03:51.810Z,503.00
2023-04-11T01:04:51.813Z,503.00
2023-04-11T01:05:51.852Z,510.00
2023-04-11T01:06:51.908Z,503.00
2023-04-11T01:07:51.944Z,508.00
2023-04-11T01:08:51.996Z,508.00
2023-04-11T01:09:52.848Z,508.00
2023-04-11T01:10:52.084Z,505.00
2023-04-11T01:11:52.126Z,504.00
2023-04-11T01:12:52.166Z,506.00
2023-04-11T01:13:52.218Z,503.00
2023-04-11T01:14:52.284Z,505.00
2023-04-11T01:15:52.296Z,503.00
2023-04-11T01:16:52.400Z,504.00
2023-04-11T01:17:52.488Z,509.00
2023-04-11T01:18:52.441Z,507.00
2023-04-11T01:19:52.462Z,506.00
2023-04-11T01:20:52.510Z,505.00
2023-04-11T01:21:52.542Z,500.00
2023-04-11T01:22:52.585Z,506.00
2023-04-11T01:23:52.692Z,508.00
2023-04-11T01:24:53.364Z,502.00
2023-04-11T01:25:52.728Z,503.00
2023-04-11T01:26:52.801Z,506.00
2023-04-11T01:27:52.813Z,506.00
2023-04-11T01:28:53.073Z,507.00
2023-04-11T01:29:52.900Z,503.00
2023-04-11T01:30:53.140Z,503.00
2023-04-11T01:31:53.007Z,507.00
2023-04-11T01:32:53.075Z,506.00
2023-04-11T01:33:53.090Z,506.00
2023-04-11T01:34:53.134Z,505.00
2023-04-11T01:35:53.219Z,506.00
2023-04-11T01:36:53.216Z,507.00
2023-04-11T01:37:53.287Z,509.00
2023-04-11T01:38:53.395Z,507.00
2023-04-11T01:39:53.357Z,509.00
2023-04-11T01:40:53.384Z,504.00
2023-04-11T01:41:53.427Z,504.00
2023-04-11T01:42:53.470Z,509.00
2023-04-11T01:43:53.508Z,507.00
2023-04-11T01:44:53.548Z,514.00
2023-04-11T01:45:53.594Z,509.00
2023-04-11T01:46:53.658Z,510.00
2023-04-11T01:47:53.734Z,510.00
2023-04-11T01:48:53.891Z,505.00
2023-04-11T01:49:53.767Z,506.00
2023-04-11T01:50:53.809Z,506.00
2023-04-11T01:51:53.882Z,504.00
2023-04-11T01:52:53.902Z,503.00
2023-04-11T01:53:53.952Z,503.00
2023-04-11T01:54:54.006Z,505.00
2023-04-11T01:55:54.033Z,509.00
2023-04-11T01:56:54.067Z,505.00
2023-04-11T01:57:54.118Z,505.00
2023-04-11T01:58:54.500Z,502.00
2023-04-11T01:59:54.198Z,504.00
2023-04-11T02:00:54.251Z,510.00
2023-04-11T02:01:54.356Z,504.00
2023-04-11T02:02:54.532Z,504.00
2023-04-11T02:03:54.509Z,508.00
2023-04-11T02:04:54.408Z,503.00
2023-04-11T02:05:54.441Z,508.00
2023-04-11T02:06:54.500Z,506.00
2023-04-11T02:07:54.528Z,506.00
2023-04-11T02:08:54.923Z,506.00
2023-04-11T02:09:54.625Z,508.00
2023-04-11T02:10:54.653Z,500.00
2023-04-11T02:11:54.697Z,511.00
2023-04-11T02:12:54.741Z,512.00
2023-04-11T02:13:54.807Z,509.00
2023-04-11T02:14:54.840Z,507.00
2023-04-11T02:15:54.900Z,507.00
2023-04-11T02:16:54.952Z,508.00
2023-04-11T02:17:55.035Z,507.00
2023-04-11T02:18:55.390Z,507.00
2023-04-11T02:19:55.068Z,505.00
2023-04-11T02:20:55.093Z,505.00
2023-04-11T02:21:55.135Z,500.00
2023-04-11T02:22:55.177Z,504.00
2023-04-11T02:23:55.238Z,509.00
2023-04-11T02:24:55.274Z,506.00
2023-04-11T02:25:55.308Z,506.00
2023-04-11T02:26:55.358Z,508.00
2023-04-11T02:27:55.388Z,503.00
2023-04-11T02:28:55.810Z,507.00
2023-04-11T02:29:55.467Z,509.00
2023-04-11T02:30:55.542Z,509.00
2023-04-11T02:31:55.698Z,502.00
2023-04-11T02:32:55.630Z,508.00
2023-04-11T02:33:55.611Z,509.00
2023-04-11T02:34:55.668Z,508.00
2023-04-11T02:35:55.723Z,509.00
2023-04-11T02:36:55.725Z,509.00
2023-04-11T02:37:55.753Z,507.00
2023-04-11T02:38:56.354Z,508.00
2023-04-11T02:39:56.190Z,508.00
2023-04-11T02:40:56.182Z,506.00
2023-04-11T02:41:56.185Z,507.00
2023-04-11T02:42:56.195Z,508.00
2023-04-11T02:43:56.188Z,503.00
2023-04-11T02:44:56.192Z,504.00
2023-04-11T02:46:02.315Z,506.00
2023-04-11T02:46:56.290Z,506.00
2023-04-11T02:47:56.233Z,508.00
2023-04-11T02:48:56.355Z,508.00
2023-04-11T02:49:56.192Z,507.00
2023-04-11T02:50:56.217Z,507.00
2023-04-11T02:51:56.183Z,511.00
2023-04-11T02:52:56.200Z,506.00
2023-04-11T02:53:56.207Z,507.00
2023-04-11T02:54:56.201Z,509.00
2023-04-11T02:55:56.239Z,503.00
2023-04-11T02:56:56.191Z,508.00
2023-04-11T02:57:57.105Z,506.00
2023-04-11T02:58:56.312Z,509.00
2023-04-11T02:59:56.204Z,507.00
2023-04-11T03:00:56.224Z,509.00
2023-04-11T03:01:56.252Z,508.00
2023-04-11T03:02:56.218Z,510.00
2023-04-11T03:03:56.303Z,506.00
2023-04-11T03:04:56.189Z,509.00
2023-04-11T03:05:56.184Z,508.00
2023-04-11T03:06:56.327Z,503.00
2023-04-11T03:07:56.181Z,508.00
2023-04-11T03:08:56.476Z,507.00
2023-04-11T03:09:56.181Z,503.00
2023-04-11T03:10:56.179Z,506.00
2023-04-11T03:11:56.179Z,504.00
2023-04-11T03:12:56.187Z,501.00
2023-04-11T03:13:56.238Z,505.00
2023-04-11T03:14:56.269Z,507.00
2023-04-11T03:15:56.324Z,505.00
2023-04-11T03:16:56.352Z,509.00
2023-04-11T03:17:56.421Z,500.00
2023-04-11T03:18:56.721Z,508.00
2023-04-11T03:19:56.480Z,502.00
2023-04-11T03:20:56.505Z,511.00
2023-04-11T03:21:56.545Z,509.00
2023-04-11T03:22:56.634Z,507.00
2023-04-11T03:23:56.627Z,503.00
2023-04-11T03:24:56.666Z,510.00
2023-04-11T03:25:56.705Z,506.00
2023-04-11T03:26:57.145Z,507.00
2023-04-11T03:27:57.192Z,507.00
2023-04-11T03:28:57.347Z,506.00
2023-04-11T03:29:57.125Z,510.00
2023-04-11T03:30:57.183Z,514.00
2023-04-11T03:31:57.122Z,510.00
2023-04-11T03:32:57.168Z,508.00
2023-04-11T03:33:57.134Z,510.00
2023-04-11T03:34:57.122Z,512.00
2023-04-11T03:35:57.168Z,508.00
2023-04-11T03:36:57.162Z,509.00
2023-04-11T03:37:57.205Z,509.00
2023-04-11T03:38:57.435Z,509.00
2023-04-11T03:39:57.297Z,508.00
2023-04-11T03:40:57.929Z,514.00
2023-04-11T03:41:57.378Z,504.00
2023-04-11T03:42:57.424Z,510.00
2023-04-11T03:43:57.529Z,508.00
2023-04-11T03:44:56.506Z,504.00
2023-04-11T03:45:57.566Z,510.00
2023-04-11T03:46:57.753Z,509.00
2023-04-11T03:47:57.668Z,511.00
2023-04-11T03:48:57.961Z,510.00
2023-04-11T03:49:57.731Z,508.00
2023-04-11T03:50:57.770Z,506.00
2023-04-11T03:51:57.821Z,508.00
2023-04-11T03:52:57.869Z,510.00
2023-04-11T03:53:57.935Z,509.00
2023-04-11T03:54:57.995Z,511.00
2023-04-11T03:55:57.987Z,508.00
2023-04-11T03:56:58.033Z,515.00
2023-04-11T03:57:58.079Z,512.00
2023-04-11T03:58:58.123Z,507.00
2023-04-11T03:59:58.148Z,515.00
2023-04-11T04:00:58.184Z,511.00
2023-04-11T04:01:58.306Z,508.00
2023-04-11T04:02:58.435Z,513.00
2023-04-11T04:03:58.770Z,510.00
2023-04-11T04:04:58.392Z,512.00
2023-04-11T04:05:58.387Z,509.00
2023-04-11T04:06:58.443Z,509.00
2023-04-11T04:07:58.467Z,512.00
2023-04-11T04:08:58.494Z,511.00
2023-04-11T04:09:58.537Z,507.00
2023-04-11T04:10:59.437Z,509.00
2023-04-11T04:11:58.620Z,511.00
2023-04-11T04:12:58.658Z,506.00
2023-04-11T04:13:58.845Z,507.00
2023-04-11T04:14:59.414Z,510.00
2023-04-11T04:15:59.901Z,508.00
2023-04-11T04:16:58.841Z,518.00
2023-04-11T04:17:58.832Z,521.00
2023-04-11T04:18:58.762Z,512.00
2023-04-11T04:19:58.761Z,517.00
2023-04-11T04:20:58.758Z,516.00
2023-04-11T04:21:58.747Z,511.00
2023-04-11T04:22:58.743Z,513.00
2023-04-11T04:23:58.923Z,510.00
2023-04-11T04:24:59.427Z,512.00
2023-04-11T04:25:58.716Z,516.00
2023-04-11T04:26:58.734Z,508.00
2023-04-11T04:27:58.711Z,510.00
2023-04-11T04:28:58.703Z,507.00
2023-04-11T04:30:04.229Z,513.00
2023-04-11T04:30:58.692Z,513.00
2023-04-11T04:31:58.723Z,513.00
2023-04-11T04:32:58.749Z,514.00
2023-04-11T04:33:58.737Z,514.00
2023-04-11T04:34:58.916Z,518.00
2023-04-11T04:35:59.503Z,510.00
2023-04-11T04:36:58.675Z,521.00
2023-04-11T04:37:58.718Z,514.00
2023-04-11T04:38:58.770Z,515.00
2023-04-11T04:39:58.816Z,508.00
2023-04-11T04:40:58.859Z,512.00
2023-04-11T04:41:58.906Z,517.00
2023-04-11T04:42:59.007Z,514.00
2023-04-11T04:43:59.002Z,513.00
2023-04-11T04:44:59.048Z,511.00
2023-04-11T04:45:59.091Z,514.00
2023-04-11T04:46:59.121Z,512.00
2023-04-11T04:47:59.212Z,516.00
2023-04-11T04:49:00.975Z,514.00
2023-04-11T04:49:59.214Z,522.00
2023-04-11T04:50:59.212Z,518.00
2023-04-11T04:51:59.202Z,516.00
2023-04-11T04:52:59.199Z,513.00
2023-04-11T04:53:59.184Z,517.00
2023-04-11T04:54:59.195Z,511.00
2023-04-11T04:55:59.165Z,516.00
2023-04-11T04:56:59.163Z,514.00
2023-04-11T04:57:59.156Z,510.00
2023-04-11T04:58:59.178Z,511.00
2023-04-11T04:59:59.143Z,510.00
2023-04-11T05:00:59.973Z,510.00
2023-04-11T05:01:59.157Z,512.00
2023-04-11T05:02:59.194Z,515.00
2023-04-11T05:03:59.735Z,512.00
2023-04-11T05:04:59.099Z,511.00
2023-04-11T05:05:59.100Z,510.00
2023-04-11T05:06:59.167Z,510.00
2023-04-11T05:07:59.088Z,512.00
2023-04-11T05:08:59.079Z,515.00
2023-04-11T05:09:59.073Z,511.00
2023-04-11T05:10:59.063Z,514.00
2023-04-11T05:11:59.098Z,513.00
2023-04-11T05:12:59.106Z,509.00
2023-04-11T05:13:59.152Z,515.00
2023-04-11T05:14:59.228Z,509.00
2023-04-11T05:15:59.234Z,510.00
2023-04-11T05:16:59.391Z,508.00
2023-04-11T05:17:59.355Z,509.00
2023-04-11T05:18:59.374Z,510.00
2023-04-11T05:19:59.415Z,517.00
2023-04-11T05:20:59.468Z,512.00
2023-04-11T05:21:59.946Z,511.00
2023-04-11T05:22:59.540Z,507.00
2023-04-11T05:23:59.584Z,517.00
2023-04-11T05:24:59.642Z,512.00
2023-04-11T05:25:59.669Z,514.00
2023-04-11T05:26:59.718Z,516.00
2023-04-11T05:27:59.754Z,512.00
2023-04-11T05:28:59.806Z,514.00
2023-04-11T05:30:00.454Z,511.00
2023-04-11T05:31:00.610Z,512.00
2023-04-11T05:31:59.937Z,509.00
2023-04-11T05:33:00.564Z,512.00
2023-04-11T05:33:59.979Z,514.00
2023-04-11T05:35:00.030Z,514.00
2023-04-11T05:36:00.480Z,521.00
2023-04-11T05:37:00.120Z,516.00
2023-04-11T05:38:00.163Z,515.00
2023-04-11T05:39:00.204Z,514.00
2023-04-11T05:40:00.472Z,517.00
2023-04-11T05:41:00.502Z,522.00
2023-04-11T05:42:00.337Z,516.00
2023-04-11T05:43:00.960Z,513.00
2023-04-11T05:44:00.463Z,515.00
2023-04-11T05:45:00.469Z,516.00
2023-04-11T05:46:01.345Z,516.00
2023-04-11T05:47:00.576Z,510.00
2023-04-11T05:48:00.619Z,514.00
2023-04-11T05:49:00.986Z,520.00
2023-04-11T05:50:00.685Z,515.00
2023-04-11T05:51:00.732Z,519.00
2023-04-11T05:52:00.760Z,514.00
2023-04-11T05:53:00.981Z,514.00
2023-04-11T05:54:00.980Z,515.00
2023-04-11T05:55:00.904Z,517.00
2023-04-11T05:56:00.962Z,514.00
2023-04-11T05:57:00.976Z,520.00
2023-04-11T05:58:01.491Z,518.00
2023-04-11T05:59:01.065Z,520.00
2023-04-11T06:00:02.466Z,520.00
2023-04-11T06:01:01.119Z,521.00
2023-04-11T06:02:01.218Z,520.00
2023-04-11T06:03:01.300Z,522.00
2023-04-11T06:04:01.518Z,519.00
2023-04-11T06:05:01.562Z,525.00
2023-04-11T06:06:04.541Z,531.00
2023-04-11T06:07:01.300Z,531.00
2023-04-11T06:08:33.097Z,533.00
2023-04-11T06:09:01.300Z,532.00
2023-04-11T06:10:01.492Z,535.00
2023-04-11T06:11:01.284Z,540.00
2023-04-11T06:12:01.275Z,557.00
2023-04-11T06:13:01.265Z,574.00
2023-04-11T06:14:01.660Z,581.00
2023-04-11T06:15:01.252Z,585.00
2023-04-11T06:16:01.314Z,591.00
2023-04-11T06:17:01.242Z,600.00
2023-04-11T06:18:01.249Z,611.00
2023-04-11T06:19:01.213Z,621.00
2023-04-11T06:20:01.988Z,631.00
2023-04-11T06:21:02.018Z,643.00
2023-04-11T06:22:01.470Z,643.00
2023-04-11T06:23:01.160Z,645.00
2023-04-11T06:24:01.158Z,648.00
2023-04-11T06:25:01.151Z,653.00
2023-04-11T06:26:01.133Z,674.00
2023-04-11T06:27:01.126Z,679.00
2023-04-11T06:28:01.119Z,684.00
2023-04-11T06:29:01.117Z,680.00
2023-04-11T06:30:01.118Z,691.00
2023-04-11T06:31:01.147Z,690.00
2023-04-11T06:32:01.128Z,713.00
2023-04-11T06:33:01.554Z,721.00
2023-04-11T06:34:01.101Z,723.00
2023-04-11T06:35:01.147Z,754.00
2023-04-11T06:36:01.130Z,740.00
2023-04-11T06:37:01.101Z,748.00
2023-04-11T06:38:01.525Z,765.00
2023-04-11T06:39:01.083Z,766.00
2023-04-11T06:40:01.227Z,769.00
2023-04-11T06:41:01.211Z,791.00
2023-04-11T06:42:01.216Z,798.00
2023-04-11T06:43:02.471Z,830.00
2023-04-11T06:44:01.236Z,878.00
2023-04-11T06:45:01.223Z,943.00
2023-04-11T06:46:01.238Z,980.00
2023-04-11T06:47:01.247Z,1014.00
2023-04-11T06:48:01.508Z,1062.00
2023-04-11T06:49:01.193Z,1082.00
2023-04-11T06:50:01.208Z,1123.00
2023-04-11T06:51:01.100Z,1139.00
2023-04-11T06:52:01.082Z,1177.00
2023-04-11T06:53:01.499Z,1208.00
2023-04-11T06:54:01.490Z,1218.00
2023-04-11T06:55:01.145Z,1243.00
2023-04-11T06:56:01.199Z,1270.00
2023-04-11T06:57:01.168Z,1295.00
2023-04-11T06:58:01.176Z,1317.00
2023-04-11T06:59:01.498Z,1340.00
2023-04-11T07:00:01.500Z,1349.00
2023-04-11T07:01:01.202Z,1370.00
2023-04-11T07:02:01.330Z,1393.00
2023-04-11T07:03:01.442Z,1417.00
2023-04-11T07:05:00.242Z,1450.00
2023-04-11T07:06:01.272Z,1478.00
2023-04-11T07:07:01.298Z,1482.00
2023-04-11T07:08:01.281Z,1493.00
2023-04-11T07:09:01.262Z,1511.00
2023-04-11T07:10:01.274Z,1538.00
2023-04-11T07:11:01.265Z,1547.00
2023-04-11T07:12:01.239Z,1563.00
2023-04-11T07:13:01.241Z,1590.00
2023-04-11T07:14:01.241Z,1593.00
2023-04-11T07:15:01.255Z,1600.00
2023-04-11T07:16:01.284Z,1625.00
2023-04-11T07:17:01.307Z,1618.00
2023-04-11T07:18:01.313Z,1638.00
2023-04-11T07:19:01.321Z,1662.00
2023-04-11T07:20:01.604Z,1677.00
2023-04-11T07:21:01.419Z,1684.00
2023-04-11T07:22:01.438Z,1685.00
2023-04-11T07:23:01.517Z,1701.00
2023-04-11T07:24:02.055Z,1717.00
2023-04-11T07:25:01.586Z,1738.00
2023-04-11T07:26:02.022Z,1738.00
2023-04-11T07:27:01.741Z,1753.00
2023-04-11T07:28:01.766Z,1755.00
2023-04-11T07:29:01.768Z,1783.00
2023-04-11T07:30:01.788Z,1765.00
2023-04-11T07:31:02.047Z,1801.00
2023-04-11T07:32:01.974Z,1790.00
2023-04-11T07:33:02.077Z,1792.00
2023-04-11T07:34:01.997Z,1826.00
2023-04-11T07:35:02.180Z,1723.00
2023-04-11T07:36:02.529Z,1626.00
2023-04-11T07:37:02.113Z,1603.00
2023-04-11T07:38:02.134Z,1599.00
2023-04-11T07:39:02.219Z,1561.00
2023-04-11T07:40:02.122Z,1552.00
2023-04-11T07:41:02.516Z,1565.00
2023-04-11T07:42:02.143Z,1608.00
2023-04-11T07:43:02.131Z,1675.00
2023-04-11T07:44:02.498Z,1690.00
2023-04-11T07:45:02.139Z,1702.00
2023-04-11T07:46:02.732Z,1741.00
2023-04-11T07:47:03.184Z,1757.00
2023-04-11T07:48:02.298Z,1771.00
2023-04-11T07:49:02.552Z,1817.00
2023-04-11T07:50:02.258Z,1884.00
2023-04-11T07:51:02.271Z,1924.00
2023-04-11T07:52:02.369Z,1972.00
2023-04-11T07:53:02.504Z,1997.00
2023-04-11T07:54:02.462Z,2006.00
2023-04-11T07:55:02.534Z,2019.00
2023-04-11T07:56:03.274Z,1569.00
2023-04-11T07:57:02.567Z,1241.00
2023-04-11T07:58:02.593Z,975.00
2023-04-11T07:59:02.621Z,784.00
2023-04-11T08:00:02.971Z,632.00
2023-04-11T08:01:03.029Z,610.00
2023-04-11T08:02:03.338Z,565.00
2023-04-11T08:03:03.732Z,498.00
2023-04-11T08:04:03.685Z,536.00
2023-04-11T08:05:03.269Z,526.00
2023-04-11T08:06:03.301Z,556.00
2023-04-11T08:07:03.381Z,560.00
2023-04-11T08:08:03.011Z,593.00
2023-04-11T08:09:03.003Z,605.00
2023-04-11T08:10:03.022Z,609.00
2023-04-11T08:11:03.083Z,628.00
2023-04-11T08:12:03.555Z,627.00
2023-04-11T08:13:03.149Z,609.00
2023-04-11T08:14:03.171Z,615.00
2023-04-11T08:15:03.140Z,610.00
2023-04-11T08:16:03.512Z,586.00
2023-04-11T08:17:03.320Z,658.00
2023-04-11T08:18:03.295Z,865.00
2023-04-11T08:19:03.559Z,1031.00
2023-04-11T08:20:03.274Z,1130.00
2023-04-11T08:21:03.314Z,1189.00
2023-04-11T08:22:03.350Z,1216.00
2023-04-11T08:23:05.763Z,1257.00
2023-04-11T08:24:03.532Z,1290.00
2023-04-11T08:25:03.336Z,1318.00
2023-04-11T08:26:03.542Z,1346.00
2023-04-11T08:27:03.356Z,1380.00
2023-04-11T08:28:03.301Z,1388.00
2023-04-11T08:29:03.311Z,1412.00
2023-04-11T08:30:03.283Z,1446.00
2023-04-11T08:31:03.632Z,1468.00
2023-04-11T08:32:03.517Z,1490.00
2023-04-11T08:33:03.405Z,1506.00
2023-04-11T08:34:06.184Z,1516.00
2023-04-11T08:35:03.263Z,1519.00
2023-04-11T08:36:03.279Z,1524.00
2023-04-11T08:37:03.235Z,1537.00
2023-04-11T08:38:03.237Z,1567.00
2023-04-11T08:39:03.517Z,1605.00
2023-04-11T08:40:03.214Z,1624.00
2023-04-11T08:41:03.206Z,1648.00
2023-04-11T08:42:03.202Z,1655.00
2023-04-11T08:43:03.224Z,1687.00
2023-04-11T08:44:03.558Z,1695.00
2023-04-11T08:45:03.613Z,1724.00
2023-04-11T08:46:03.264Z,1732.00
2023-04-11T08:47:03.197Z,1765.00
2023-04-11T08:48:03.175Z,1779.00
2023-04-11T08:49:03.156Z,1788.00
2023-04-11T08:50:03.655Z,1803.00
2023-04-11T08:51:03.130Z,1818.00
2023-04-11T08:52:03.129Z,1831.00
2023-04-11T08:53:03.120Z,1859.00
2023-04-11T08:54:03.542Z,1868.00
2023-04-11T08:55:03.105Z,1890.00
2023-04-11T08:56:03.090Z,1911.00
2023-04-11T08:57:03.100Z,1931.00
2023-04-11T08:58:03.089Z,1928.00
2023-04-11T08:59:03.553Z,1956.00
2023-04-11T09:00:03.163Z,1975.00
2023-04-11T09:01:03.212Z,1980.00
2023-04-11T09:02:03.323Z,1982.00
2023-04-11T09:03:03.846Z,1996.00
2023-04-11T09:04:03.536Z,2008.00
2023-04-11T09:05:03.509Z,2030.00
2023-04-11T09:06:03.533Z,2035.00
2023-04-11T09:07:03.608Z,2014.00
2023-04-11T09:08:03.591Z,2062.00
2023-04-11T09:09:03.669Z,1575.00
2023-04-11T09:10:03.663Z,1230.00
2023-04-11T09:11:04.027Z,1092.00
2023-04-11T09:12:04.018Z,922.00
2023-04-11T09:13:04.010Z,888.00
2023-04-11T09:14:04.086Z,801.00
2023-04-11T09:15:04.552Z,841.00
2023-04-11T09:16:04.584Z,793.00
2023-04-11T09:17:03.953Z,868.00
2023-04-11T09:18:03.898Z,1000.00
2023-04-11T09:19:03.894Z,1216.00
2023-04-11T09:20:04.049Z,1311.00
2023-04-11T09:21:03.938Z,1377.00
2023-04-11T09:22:03.952Z,1415.00
2023-04-11T09:23:03.996Z,1453.00
2023-04-11T09:24:04.533Z,1471.00
2023-04-11T09:25:04.058Z,1510.00
2023-04-11T09:26:04.079Z,1516.00
2023-04-11T09:27:04.058Z,1559.00
2023-04-11T09:28:04.088Z,1578.00
2023-04-11T09:29:04.547Z,1581.00
2023-04-11T09:30:04.536Z,1590.00
2023-04-11T09:31:04.305Z,1613.00
2023-04-11T09:32:04.539Z,1635.00
2023-04-11T09:33:04.392Z,1671.00
2023-04-11T09:34:04.548Z,1679.00
2023-04-11T09:35:04.320Z,1696.00
2023-04-11T09:36:04.384Z,1731.00
2023-04-11T09:37:04.365Z,1736.00
2023-04-11T09:38:04.355Z,1755.00
2023-04-11T09:39:04.546Z,1779.00
2023-04-11T09:40:05.731Z,1795.00
2023-04-11T09:41:05.068Z,1790.00
2023-04-11T09:42:05.048Z,1814.00
2023-04-11T09:43:04.611Z,1827.00
2023-04-11T09:44:04.618Z,1838.00
2023-04-11T09:45:04.666Z,1884.00
2023-04-11T09:46:05.350Z,1875.00
2023-04-11T09:47:04.899Z,1911.00
2023-04-11T09:48:04.751Z,1929.00
2023-04-11T09:49:05.101Z,1942.00
2023-04-11T09:50:04.846Z,1954.00
2023-04-11T09:51:05.058Z,1972.00
2023-04-11T09:52:05.062Z,1969.00
2023-04-11T09:53:05.042Z,1976.00
2023-04-11T09:54:07.144Z,2005.00
2023-04-11T09:55:05.401Z,2027.00
2023-04-11T09:56:05.104Z,2017.00
2023-04-11T09:57:05.546Z,2046.00
2023-04-11T09:58:05.571Z,2048.00
2023-04-11T09:59:05.130Z,2019.00
2023-04-11T10:00:05.047Z,2066.00
2023-04-11T10:01:05.053Z,2053.00
2023-04-11T10:02:05.204Z,2089.00
2023-04-11T10:03:05.228Z,2101.00
2023-04-11T10:04:05.043Z,2084.00
2023-04-11T10:05:05.629Z,2108.00
2023-04-11T10:06:05.213Z,2115.00
2023-04-11T10:07:05.324Z,1786.00
2023-04-11T10:08:05.365Z,1411.00
2023-04-11T10:09:05.553Z,964.00
2023-04-11T10:10:05.429Z,807.00
2023-04-11T10:11:05.364Z,693.00
2023-04-11T10:12:05.403Z,665.00
2023-04-11T10:13:04.964Z,700.00
2023-04-11T10:14:04.945Z,720.00
2023-04-11T10:15:04.943Z,616.00
2023-04-11T10:16:04.957Z,601.00
2023-04-11T10:17:04.930Z,613.00
2023-04-11T10:18:04.984Z,643.00
2023-04-11T10:19:04.953Z,579.00
2023-04-11T10:20:04.909Z,580.00
2023-04-11T10:21:04.904Z,584.00
2023-04-11T10:22:05.066Z,589.00
2023-04-11T10:23:05.595Z,578.00
2023-04-11T10:24:04.876Z,585.00
2023-04-11T10:25:04.861Z,561.00
2023-04-11T10:26:05.282Z,585.00
2023-04-11T10:27:05.062Z,1036.00
2023-04-11T10:28:04.885Z,1181.00
2023-04-11T10:29:05.073Z,1243.00
2023-04-11T10:30:04.837Z,1298.00
2023-04-11T10:31:05.230Z,1288.00
2023-04-11T10:32:04.896Z,1298.00
2023-04-11T10:33:05.092Z,1303.00
2023-04-11T10:34:04.901Z,1326.00
2023-04-11T10:35:04.942Z,1329.00
2023-04-11T10:36:04.984Z,1329.00
2023-04-11T10:37:04.959Z,1345.00
2023-04-11T10:38:05.063Z,1352.00
2023-04-11T10:39:05.063Z,1356.00
2023-04-11T10:40:04.953Z,1364.00
2023-04-11T10:41:04.953Z,1367.00
2023-04-11T10:42:05.569Z,1386.00
2023-04-11T10:43:05.056Z,1379.00
2023-04-11T10:44:05.562Z,1381.00
2023-04-11T10:45:05.170Z,1396.00
2023-04-11T10:46:05.213Z,1416.00
2023-04-11T10:47:05.292Z,1427.00
2023-04-11T10:48:05.327Z,1427.00
2023-04-11T10:49:05.569Z,1433.00
2023-04-11T10:50:05.354Z,1429.00
2023-04-11T10:51:05.407Z,1442.00
2023-04-11T10:52:05.411Z,1446.00
2023-04-11T10:53:05.587Z,1447.00
2023-04-11T10:54:05.708Z,1438.00
2023-04-11T10:55:05.480Z,1444.00
2023-04-11T10:56:05.516Z,1453.00
2023-04-11T10:57:05.508Z,1463.00
2023-04-11T10:58:05.572Z,1455.00
2023-04-11T10:59:05.578Z,1471.00
2023-04-11T11:01:04.620Z,1454.00
2023-04-11T11:02:05.643Z,1462.00
2023-04-11T11:03:05.682Z,1463.00
2023-04-11T11:04:06.911Z,1465.00
2023-04-11T11:05:05.845Z,1463.00
2023-04-11T11:06:06.071Z,1453.00
2023-04-11T11:07:05.822Z,1456.00
2023-04-11T11:08:05.914Z,1458.00
2023-04-11T11:09:06.210Z,1458.00
2023-04-11T11:10:05.933Z,1447.00
2023-04-11T11:11:05.955Z,1455.00
2023-04-11T11:12:05.873Z,1445.00
2023-04-11T11:13:06.203Z,1460.00
2023-04-11T11:14:05.846Z,1448.00
2023-04-11T11:15:05.850Z,1453.00
2023-04-11T11:16:05.870Z,1444.00
2023-04-11T11:17:06.607Z,1443.00
2023-04-11T11:18:06.630Z,1441.00
2023-04-11T11:19:05.854Z,1432.00
2023-04-11T11:20:05.852Z,1444.00
2023-04-11T11:21:07.482Z,1441.00
2023-04-11T11:22:13.256Z,1443.00
2023-04-11T11:23:06.070Z,1444.00
2023-04-11T11:24:05.828Z,1450.00
2023-04-11T11:25:05.828Z,1454.00
2023-04-11T11:26:05.819Z,1447.00
2023-04-11T11:27:05.803Z,1460.00
2023-04-11T11:28:05.802Z,1436.00
2023-04-11T11:29:06.101Z,1456.00
2023-04-11T11:30:05.794Z,1440.00
2023-04-11T11:31:05.776Z,1404.00
2023-04-11T11:32:05.793Z,1421.00
2023-04-11T11:33:05.782Z,1424.00
2023-04-11T11:34:21.954Z,1417.00
2023-04-11T11:35:05.756Z,1419.00
2023-04-11T11:36:05.773Z,1421.00
2023-04-11T11:37:05.752Z,1424.00
2023-04-11T11:38:06.105Z,1428.00
2023-04-11T11:39:05.726Z,1433.00
2023-04-11T11:40:05.711Z,1404.00
2023-04-11T11:41:05.708Z,1416.00
2023-04-11T11:42:05.704Z,1401.00
2023-04-11T11:43:06.087Z,1404.00
2023-04-11T11:44:05.691Z,1394.00
2023-04-11T11:45:05.686Z,1392.00
2023-04-11T11:46:07.183Z,1383.00
2023-04-11T11:47:05.917Z,1383.00
2023-04-11T11:48:06.181Z,1372.00
2023-04-11T11:49:05.910Z,1388.00
2023-04-11T11:50:05.920Z,1370.00
2023-04-11T11:51:05.952Z,1364.00
2023-04-11T11:52:05.903Z,1367.00
2023-04-11T11:53:05.911Z,1340.00
2023-04-11T11:54:05.956Z,1348.00
2023-04-11T11:55:07.009Z,1349.00
2023-04-11T11:56:05.950Z,1349.00
2023-04-11T11:57:05.947Z,1349.00
2023-04-11T11:58:06.086Z,1318.00
2023-04-11T11:59:05.917Z,1334.00
2023-04-11T12:00:05.934Z,1334.00
2023-04-11T12:01:05.909Z,1315.00
2023-04-11T12:02:05.996Z,1305.00
2023-04-11T12:03:06.268Z,1314.00
2023-04-11T12:04:06.038Z,1317.00
2023-04-11T12:05:06.046Z,1314.00
2023-04-11T12:06:05.872Z,1340.00
2023-04-11T12:07:05.864Z,1418.00
2023-04-11T12:08:06.103Z,1498.00
2023-04-11T12:09:05.855Z,1524.00
2023-04-11T12:10:06.216Z,1547.00
2023-04-11T12:11:06.586Z,1540.00
2023-04-11T12:12:05.837Z,1529.00
2023-04-11T12:13:07.086Z,1531.00
2023-04-11T12:14:06.001Z,1535.00
2023-04-11T12:15:05.803Z,1519.00
2023-04-11T12:16:06.149Z,1498.00
2023-04-11T12:17:05.976Z,1479.00
2023-04-11T12:18:05.864Z,1474.00
2023-04-11T12:19:06.236Z,1479.00
2023-04-11T12:20:05.791Z,1453.00
2023-04-11T12:21:05.771Z,1434.00
2023-04-11T12:22:05.763Z,1429.00